Time,TemperatureF,DewpointF,PressureIn,WindDirection,WindDirectionDegrees,WindSpeedMPH,WindSpeedGustMPH,Humidity,HourlyPrecipIn,Conditions,Clouds,dailyrainin,SoftwareType,DateUTC
2013-05-19 00:05:00,63.3,62.0,30.06,SE,131,0.0,0.0,96,0.00,,,0.01,weatherlink.com 1.10,2013-05-19 04:05:00,
2013-05-19 00:20:00,63.3,63.0,30.06,SE,131,0.0,0.0,97,0.00,,,0.01,weatherlink.com 1.10,2013-05-19 04:20:00,
2013-05-19 00:35:00,63.3,63.0,30.06,SE,131,0.0,1.0,97,0.00,,,0.01,weatherlink.com 1.10,2013-05-19 04:35:00,
2013-05-19 00:50:00,63.2,62.0,30.06,SE,131,0.0,0.0,97,0.00,,,0.01,weatherlink.com 1.10,2013-05-19 04:50:00,
2013-05-19 01:05:00,63.1,62.0,30.05,SE,131,0.0,0.0,97,0.00,,,0.01,weatherlink.com 1.10,2013-05-19 05:05:00,
2013-05-19 01:20:00,63.0,62.0,30.05,SE,131,0.0,0.0,97,0.00,,,0.01,weatherlink.com 1.10,2013-05-19 05:20:00,
2013-05-19 01:35:00,62.9,62.0,30.05,SE,131,0.0,1.0,97,0.00,,,0.01,weatherlink.com 1.10,2013-05-19 05:35:00,
2013-05-19 01:50:00,62.8,62.0,30.05,SE,131,0.0,1.0,97,0.00,,,0.01,weatherlink.com 1.10,2013-05-19 05:50:00,
2013-05-19 02:05:00,62.6,62.0,30.04,SE,131,0.0,0.0,98,0.00,,,0.01,weatherlink.com 1.10,2013-05-19 06:05:00,
2013-05-19 02:20:00,62.5,62.0,30.04,SE,131,0.0,1.0,98,0.00,,,0.01,weatherlink.com 1.10,2013-05-19 06:20:00,
2013-05-19 02:35:00,62.4,62.0,30.04,SE,131,0.0,0.0,98,0.01,,,0.02,weatherlink.com 1.10,2013-05-19 06:35:00,
2013-05-19 02:50:00,62.3,62.0,30.03,ESE,119,1.0,1.0,98,0.01,,,0.02,weatherlink.com 1.10,2013-05-19 06:50:00,
2013-05-19 03:06:00,62.4,62.0,30.03,East,98,0.0,1.0,98,0.01,,,0.02,weatherlink.com 1.10,2013-05-19 07:06:00,
2013-05-19 03:35:00,61.8,61.0,30.03,East,96,0.0,1.0,98,0.00,,,0.00,weatherlink.com 1.10,2013-05-19 07:35:00,
2013-05-19 03:50:00,61.4,61.0,30.03,East,94,0.0,0.0,98,0.00,,,0.00,weatherlink.com 1.10,2013-05-19 07:50:00,
2013-05-19 04:05:00,61.3,61.0,30.03,East,85,0.0,1.0,98,0.00,,,0.00,weatherlink.com 1.10,2013-05-19 08:05:00,
2013-05-19 04:20:00,60.9,60.0,30.03,East,82,0.0,1.0,98,0.00,,,0.00,weatherlink.com 1.10,2013-05-19 08:20:00,
2013-05-19 04:35:00,61.0,61.0,30.03,SSE,151,0.0,0.0,98,0.00,,,0.00,weatherlink.com 1.10,2013-05-19 08:35:00,
2013-05-19 04:50:00,60.9,60.0,30.04,SSE,150,0.0,0.0,98,0.00,,,0.00,weatherlink.com 1.10,2013-05-19 08:50:00,
2013-05-19 05:05:00,60.8,60.0,30.04,SSE,165,0.0,2.0,98,0.00,,,0.00,weatherlink.com 1.10,2013-05-19 09:05:00,
2013-05-19 05:20:00,60.9,60.0,30.04,SSE,165,0.0,0.0,98,0.00,,,0.00,weatherlink.com 1.10,2013-05-19 09:20:00,
2013-05-19 05:35:00,61.1,61.0,30.04,SSE,165,0.0,0.0,99,0.00,,,0.00,weatherlink.com 1.10,2013-05-19 09:35:00,
2013-05-19 05:50:00,61.1,61.0,30.05,SSE,165,0.0,0.0,99,0.00,,,0.00,weatherlink.com 1.10,2013-05-19 09:50:00,
2013-05-19 06:04:00,60.8,60.0,30.04,SSE,165,0.0,0.0,98,0.00,,,0.00,weatherlink.com 1.10,2013-05-19 10:04:00,
2013-05-19 06:20:00,60.5,60.0,30.05,SSE,165,0.0,0.0,98,0.00,,,0.00,weatherlink.com 1.10,2013-05-19 10:20:00,
2013-05-19 06:35:00,60.3,60.0,30.06,SSE,165,0.0,0.0,99,0.00,,,0.00,weatherlink.com 1.10,2013-05-19 10:35:00,
2013-05-19 06:50:00,60.8,61.0,30.06,SSE,161,0.0,1.0,99,0.00,,,0.00,weatherlink.com 1.10,2013-05-19 10:50:00,
2013-05-19 07:05:00,61.1,61.0,30.06,NE,54,1.0,2.0,99,0.00,,,0.00,weatherlink.com 1.10,2013-05-19 11:05:00,
2013-05-19 07:20:00,61.2,61.0,30.06,NE,54,1.0,1.0,99,0.00,,,0.00,weatherlink.com 1.10,2013-05-19 11:20:00,
2013-05-19 07:35:00,61.7,62.0,30.07,NE,53,0.0,1.0,99,0.00,,,0.00,weatherlink.com 1.10,2013-05-19 11:35:00,
2013-05-19 07:50:00,62.2,62.0,30.07,NE,52,0.0,0.0,99,0.00,,,0.00,weatherlink.com 1.10,2013-05-19 11:50:00,
2013-05-19 08:05:00,62.5,62.0,30.07,NE,51,1.0,1.0,99,0.00,,,0.00,weatherlink.com 1.10,2013-05-19 12:05:00,
2013-05-19 08:20:00,63.5,63.0,30.07,NE,37,1.0,1.0,99,0.00,,,0.00,weatherlink.com 1.10,2013-05-19 12:20:00,
2013-05-19 08:35:00,63.4,63.0,30.07,NE,54,3.0,3.0,98,0.00,,,0.00,weatherlink.com 1.10,2013-05-19 12:35:00,
2013-05-19 08:50:00,64.3,64.0,30.07,NE,54,2.0,3.0,97,0.00,,,0.00,weatherlink.com 1.10,2013-05-19 12:50:00,
2013-05-19 09:05:00,64.8,64.0,30.08,North,5,2.0,2.0,96,0.00,,,0.00,weatherlink.com 1.10,2013-05-19 13:05:00,
2013-05-19 09:20:00,65.6,64.0,30.07,SE,138,1.0,3.0,94,0.00,,,0.00,weatherlink.com 1.10,2013-05-19 13:20:00,
2013-05-19 09:35:00,67.3,65.0,30.08,SE,139,2.0,4.0,91,0.00,,,0.00,weatherlink.com 1.10,2013-05-19 13:35:00,
2013-05-19 09:50:00,69.2,66.0,30.07,SSE,153,0.0,4.0,88,0.00,,,0.00,weatherlink.com 1.10,2013-05-19 13:50:00,
2013-05-19 10:05:00,70.3,66.0,30.07,SW,222,0.0,2.0,85,0.00,,,0.00,weatherlink.com 1.10,2013-05-19 14:05:00,
2013-05-19 10:20:00,71.5,67.0,30.07,NNE,25,1.0,2.0,86,0.00,,,0.00,weatherlink.com 1.10,2013-05-19 14:20:00,
2013-05-19 10:35:00,72.0,67.0,30.06,WSW,240,0.0,5.0,84,0.00,,,0.00,weatherlink.com 1.10,2013-05-19 14:35:00,
2013-05-19 10:50:00,72.3,67.0,30.06,ESE,118,6.0,7.0,82,0.00,,,0.00,weatherlink.com 1.10,2013-05-19 14:50:00,
2013-05-19 11:05:00,73.7,66.0,30.05,SSE,156,3.0,7.0,78,0.00,,,0.00,weatherlink.com 1.10,2013-05-19 15:05:00,
2013-05-19 11:20:00,74.4,67.0,30.05,South,177,2.0,5.0,77,0.00,,,0.00,weatherlink.com 1.10,2013-05-19 15:20:00,
2013-05-19 11:36:00,76.2,67.0,30.05,SW,219,3.0,7.0,73,0.00,,,0.00,weatherlink.com 1.10,2013-05-19 15:36:00,
2013-05-19 11:51:00,75.3,65.0,30.05,WSW,246,2.0,8.0,71,0.00,,,0.00,weatherlink.com 1.10,2013-05-19 15:51:00,
2013-05-19 12:06:00,73.5,66.0,30.04,South,187,0.0,3.0,78,0.00,,,0.00,weatherlink.com 1.10,2013-05-19 16:06:00,
2013-05-19 12:21:00,74.3,67.0,30.03,SW,226,2.0,3.0,78,0.00,,,0.00,weatherlink.com 1.10,2013-05-19 16:21:00,
2013-05-19 12:36:00,76.5,66.0,30.02,SE,129,1.0,4.0,70,0.00,,,0.00,weatherlink.com 1.10,2013-05-19 16:36:00,
2013-05-19 12:51:00,77.2,65.0,30.02,ESE,119,2.0,7.0,67,0.00,,,0.00,weatherlink.com 1.10,2013-05-19 16:51:00,
2013-05-19 13:06:00,76.7,65.0,30.01,South,171,4.0,8.0,68,0.00,,,0.00,weatherlink.com 1.10,2013-05-19 17:06:00,
2013-05-19 13:21:00,77.0,65.0,30.01,South,170,2.0,4.0,67,0.00,,,0.00,weatherlink.com 1.10,2013-05-19 17:21:00,
2013-05-19 13:36:00,78.0,65.0,30.00,South,170,2.0,5.0,65,0.00,,,0.00,weatherlink.com 1.10,2013-05-19 17:36:00,
2013-05-19 13:51:00,78.2,66.0,30.00,SSW,204,7.0,10.0,66,0.00,,,0.00,weatherlink.com 1.10,2013-05-19 17:51:00,
2013-05-19 14:06:00,78.6,65.0,30.00,South,191,2.0,9.0,64,0.00,,,0.00,weatherlink.com 1.10,2013-05-19 18:06:00,
2013-05-19 14:21:00,76.4,65.0,30.00,SSE,155,5.0,7.0,67,0.00,,,0.00,weatherlink.com 1.10,2013-05-19 18:21:00,
2013-05-19 14:36:00,75.5,64.0,30.00,SW,218,0.0,6.0,68,0.00,,,0.00,weatherlink.com 1.10,2013-05-19 18:36:00,
2013-05-19 14:51:00,72.4,65.0,30.00,NE,34,3.0,8.0,78,0.00,,,0.00,weatherlink.com 1.10,2013-05-19 18:51:00,
2013-05-19 15:06:00,69.6,66.0,30.01,NW,322,0.0,4.0,87,0.04,,,0.04,weatherlink.com 1.10,2013-05-19 19:06:00,
2013-05-19 15:21:00,68.9,66.0,30.00,NE,53,0.0,1.0,91,0.05,,,0.05,weatherlink.com 1.10,2013-05-19 19:21:00,
2013-05-19 15:36:00,68.5,67.0,30.01,NE,51,0.0,1.0,94,0.06,,,0.06,weatherlink.com 1.10,2013-05-19 19:36:00,
2013-05-19 15:51:00,67.2,65.0,30.02,SSE,165,4.0,12.0,91,0.05,,,0.06,weatherlink.com 1.10,2013-05-19 19:51:00,
2013-05-19 16:06:00,64.9,62.0,30.02,SSE,162,0.0,4.0,91,0.05,,,0.09,weatherlink.com 1.10,2013-05-19 20:06:00,
2013-05-19 16:21:00,63.8,60.0,30.00,South,186,3.0,5.0,88,0.05,,,0.10,weatherlink.com 1.10,2013-05-19 20:21:00,
2013-05-19 16:36:00,63.8,62.0,30.00,SSW,213,0.0,1.0,93,0.04,,,0.10,weatherlink.com 1.10,2013-05-19 20:36:00,
2013-05-19 16:51:00,64.0,62.0,29.99,SW,214,0.0,1.0,93,0.04,,,0.10,weatherlink.com 1.10,2013-05-19 20:51:00,
2013-05-19 17:06:00,65.0,62.0,30.00,SE,141,0.0,1.0,90,0.01,,,0.10,weatherlink.com 1.10,2013-05-19 21:06:00,
2013-05-19 17:21:00,65.1,63.0,30.00,North,354,0.0,2.0,91,0.00,,,0.10,weatherlink.com 1.10,2013-05-19 21:21:00,
2013-05-19 17:37:00,66.2,64.0,30.00,North,352,0.0,0.0,92,0.00,,,0.10,weatherlink.com 1.10,2013-05-19 21:37:00,
2013-05-19 17:51:00,66.7,64.0,30.00,NNW,346,0.0,1.0,92,0.00,,,0.10,weatherlink.com 1.10,2013-05-19 21:51:00,
2013-05-19 18:06:00,67.6,64.0,30.00,NNW,338,0.0,1.0,89,0.00,,,0.10,weatherlink.com 1.10,2013-05-19 22:06:00,
2013-05-19 18:22:00,67.6,65.0,30.00,NNW,340,0.0,1.0,91,0.00,,,0.10,weatherlink.com 1.10,2013-05-19 22:22:00,
2013-05-19 18:36:00,67.3,64.0,30.00,North,358,0.0,2.0,90,0.00,,,0.10,weatherlink.com 1.10,2013-05-19 22:36:00,
2013-05-19 18:52:00,67.6,65.0,30.00,North,358,0.0,1.0,92,0.00,,,0.10,weatherlink.com 1.10,2013-05-19 22:52:00,
2013-05-19 19:07:00,67.3,65.0,30.00,North,7,0.0,1.0,91,0.00,,,0.10,weatherlink.com 1.10,2013-05-19 23:07:00,
2013-05-19 19:22:00,67.2,65.0,30.01,North,8,0.0,0.0,91,0.00,,,0.10,weatherlink.com 1.10,2013-05-19 23:22:00,
2013-05-19 19:38:00,66.8,65.0,30.01,North,8,0.0,0.0,93,0.00,,,0.10,weatherlink.com 1.10,2013-05-19 23:38:00,
2013-05-19 19:52:00,66.4,64.0,30.01,North,8,0.0,0.0,93,0.00,,,0.10,weatherlink.com 1.10,2013-05-19 23:52:00,
2013-05-19 20:08:00,65.7,64.0,30.02,North,8,0.0,0.0,94,0.00,,,0.10,weatherlink.com 1.10,2013-05-20 00:08:00,
2013-05-19 20:22:00,65.2,64.0,30.02,North,8,0.0,0.0,95,0.00,,,0.10,weatherlink.com 1.10,2013-05-20 00:22:00,
2013-05-19 21:08:00,63.8,63.0,30.03,North,9,0.0,0.0,97,0.00,,,0.10,weatherlink.com 1.10,2013-05-20 01:08:00,
2013-05-19 21:38:00,63.7,63.0,30.02,NNE,30,2.0,2.0,98,0.00,,,0.10,weatherlink.com 1.10,2013-05-20 01:38:00,
2013-05-19 21:52:00,63.5,63.0,30.03,NE,34,1.0,1.0,98,0.00,,,0.10,weatherlink.com 1.10,2013-05-20 01:52:00,
2013-05-19 22:07:00,63.3,63.0,30.04,NE,34,1.0,1.0,98,0.00,,,0.10,weatherlink.com 1.10,2013-05-20 02:07:00,
2013-05-19 22:22:00,62.8,62.0,30.04,NE,34,0.0,1.0,98,0.00,,,0.10,weatherlink.com 1.10,2013-05-20 02:22:00,
2013-05-19 22:37:00,62.6,62.0,30.04,NE,34,0.0,0.0,98,0.00,,,0.10,weatherlink.com 1.10,2013-05-20 02:37:00,
2013-05-19 22:52:00,62.1,62.0,30.05,NE,34,0.0,0.0,98,0.00,,,0.10,weatherlink.com 1.10,2013-05-20 02:52:00,
2013-05-19 23:07:00,61.7,61.0,30.05,NE,34,0.0,0.0,98,0.00,,,0.10,weatherlink.com 1.10,2013-05-20 03:07:00,
2013-05-19 23:22:00,61.6,61.0,30.05,NE,34,0.0,0.0,98,0.00,,,0.10,weatherlink.com 1.10,2013-05-20 03:22:00,
2013-05-19 23:37:00,61.2,61.0,30.05,NE,34,0.0,0.0,98,0.00,,,0.10,weatherlink.com 1.10,2013-05-20 03:37:00,
2013-05-19 23:52:00,61.3,61.0,30.05,NE,34,0.0,0.0,98,0.00,,,0.10,weatherlink.com 1.10,2013-05-20 03:52:00,